Time;durP1;ratioP1;P1;durP2;ratioP2;P2;SDS_P1;SDS_P2;PMS_P1;PMS_P2;Temp;Humidity;BMP_temperature;BMP_pressure;BME280_temperature;BME280_humidity;BME280_pressure;Samples;Min_cycle;Max_cycle;Signal;HPM_P1;HPM_P2
2023/01/09 00:00:08;;;;;;;7.20;7.00;;;4.90;99.90;;;;;;5040864;28;20267;-80
2023/01/09 00:02:39;;;;;;;7.37;7.17;;;4.90;99.90;;;;;;5039838;28;20383;-80
2023/01/09 00:05:08;;;;;;;7.50;7.30;;;4.90;99.90;;;;;;5040395;28;20228;-80
2023/01/09 00:07:35;;;;;;;7.50;7.30;;;5.00;99.90;;;;;;5040240;28;20227;-80
2023/01/09 00:10:05;;;;;;;7.37;7.17;;;5.00;99.90;;;;;;5039710;28;20326;-79
2023/01/09 00:12:34;;;;;;;7.33;7.13;;;4.90;99.90;;;;;;5040052;28;20245;-80
2023/01/09 00:15:02;;;;;;;7.60;7.40;;;4.90;99.90;;;;;;5040395;28;20298;-80
2023/01/09 00:17:30;;;;;;;7.40;7.20;;;4.90;99.90;;;;;;5040362;28;20254;-80
2023/01/09 00:19:58;;;;;;;7.40;7.20;;;4.90;99.90;;;;;;5041246;28;20322;-80
2023/01/09 00:22:26;;;;;;;7.40;7.20;;;4.90;99.90;;;;;;5040087;28;20236;-80
2023/01/09 00:24:53;;;;;;;7.50;7.30;;;4.90;99.90;;;;;;5039900;28;20234;-80
2023/01/09 00:27:22;;;;;;;7.60;7.40;;;4.90;99.90;;;;;;5041094;28;20619;-80
2023/01/09 00:29:50;;;;;;;7.60;7.40;;;4.90;99.90;;;;;;5040389;28;20270;-80
2023/01/09 00:32:19;;;;;;;7.60;7.40;;;4.90;99.90;;;;;;5040255;28;20325;-80
2023/01/09 00:34:47;;;;;;;7.50;7.30;;;4.90;99.90;;;;;;5040862;28;20215;-80
2023/01/09 00:37:15;;;;;;;7.50;7.30;;;4.90;99.90;;;;;;5044633;28;20242;-80
2023/01/09 00:39:43;;;;;;;7.57;7.37;;;4.90;99.90;;;;;;5045558;28;20295;-80
2023/01/09 00:42:15;;;;;;;7.60;7.40;;;4.90;99.90;;;;;;5042407;28;20239;-80
2023/01/09 00:44:49;;;;;;;7.40;7.20;;;4.90;99.90;;;;;;5039645;28;20282;-81
2023/01/09 00:47:21;;;;;;;7.50;7.30;;;4.90;99.90;;;;;;5039464;28;20231;-81
2023/01/09 00:49:50;;;;;;;7.50;7.30;;;4.90;99.90;;;;;;5038775;28;20259;-80
2023/01/09 00:52:18;;;;;;;7.57;7.37;;;4.90;99.90;;;;;;5039017;28;20245;-80
2023/01/09 00:54:46;;;;;;;7.50;7.30;;;4.90;99.90;;;;;;5039982;28;20228;-80
2023/01/09 00:57:15;;;;;;;7.67;7.47;;;4.90;99.90;;;;;;5039057;28;20232;-80
2023/01/09 00:59:44;;;;;;;7.80;7.60;;;4.90;99.90;;;;;;5038799;28;20266;-80
2023/01/09 01:02:11;;;;;;;7.80;7.60;;;4.90;99.90;;;;;;5039147;28;20250;-80
2023/01/09 01:07:38;;;;;;;7.47;7.27;;;4.90;99.90;;;;;;5040002;28;20230;-80
2023/01/09 01:10:10;;;;;;;7.40;7.20;;;4.80;99.90;;;;;;5040026;28;20624;-79
2023/01/09 01:12:38;;;;;;;7.70;7.50;;;4.80;99.90;;;;;;5038521;28;20258;-79
2023/01/09 01:15:09;;;;;;;7.50;7.30;;;4.80;99.90;;;;;;5038433;28;20240;-80
2023/01/09 01:17:38;;;;;;;7.63;7.43;;;4.80;99.90;;;;;;5038331;28;20228;-80
2023/01/09 01:20:09;;;;;;;7.50;7.30;;;4.80;99.90;;;;;;5038088;28;20321;-80
2023/01/09 01:22:37;;;;;;;7.43;7.23;;;4.70;99.90;;;;;;5038841;28;20263;-80
2023/01/09 01:25:05;;;;;;;7.57;7.37;;;4.70;99.90;;;;;;5038839;28;20224;-79
2023/01/09 01:27:33;;;;;;;7.60;7.40;;;4.70;99.90;;;;;;5041472;28;20239;-79
2023/01/09 01:30:00;;;;;;;7.50;7.30;;;4.70;99.90;;;;;;5042328;28;20239;-80
2023/01/09 01:32:29;;;;;;;7.70;7.50;;;4.70;99.90;;;;;;5041517;28;20239;-80
2023/01/09 01:34:56;;;;;;;7.70;7.50;;;4.70;99.90;;;;;;5042395;28;20228;-80
2023/01/09 01:37:24;;;;;;;7.60;7.40;;;4.70;99.90;;;;;;5041557;28;20242;-80
2023/01/09 01:39:52;;;;;;;7.70;7.50;;;4.70;99.90;;;;;;5041552;28;20231;-81
2023/01/09 01:42:20;;;;;;;7.77;7.57;;;4.70;99.90;;;;;;5041424;28;20238;-80
2023/01/09 01:45:08;;;;;;;7.67;7.47;;;4.70;99.90;;;;;;5041737;28;20223;-80
2023/01/09 01:47:47;;;;;;;7.80;7.60;;;4.70;99.90;;;;;;5032854;28;20238;-80
2023/01/09 01:50:23;;;;;;;7.80;7.60;;;4.70;99.90;;;;;;5023692;28;20239;-79
2023/01/09 01:53:02;;;;;;;7.70;7.50;;;4.70;99.90;;;;;;5022873;28;20259;-80
2023/01/09 01:55:29;;;;;;;7.70;7.50;;;4.80;99.90;;;;;;5021967;28;20235;-79
2023/01/09 01:58:03;;;;;;;7.60;7.40;;;4.70;99.90;;;;;;5022557;28;20233;-80
2023/01/09 02:00:35;;;;;;;7.70;7.50;;;4.70;99.90;;;;;;5023299;28;20246;-80
2023/01/09 02:03:06;;;;;;;7.70;7.50;;;4.70;99.90;;;;;;5022560;28;20303;-80
2023/01/09 02:05:34;;;;;;;7.50;7.30;;;4.70;99.90;;;;;;5023050;28;20228;-80
2023/01/09 02:08:02;;;;;;;7.40;7.20;;;4.70;99.90;;;;;;5022687;28;20294;-79
2023/01/09 02:10:30;;;;;;;7.53;7.33;;;4.70;99.90;;;;;;5022486;28;20295;-80
2023/01/09 02:12:58;;;;;;;7.33;7.13;;;4.70;99.90;;;;;;5021773;28;20303;-80
2023/01/09 02:15:26;;;;;;;7.37;7.17;;;4.70;99.90;;;;;;5021813;28;20311;-80
2023/01/09 02:18:20;;;;;;;7.63;7.43;;;4.70;99.90;;;;;;5024049;28;20326;-81
2023/01/09 02:20:56;;;;;;;7.40;7.20;;;4.70;99.90;;;;;;5022509;28;20246;-79
2023/01/09 02:24:12;;;;;;;7.40;7.20;;;4.70;99.90;;;;;;5022998;28;20255;-80
2023/01/09 02:27:28;;;;;;;7.53;7.33;;;4.70;99.90;;;;;;5021769;28;20294;-80
2023/01/09 02:30:33;;;;;;;7.43;7.23;;;4.70;99.90;;;;;;5022231;28;20263;-80
2023/01/09 02:33:16;;;;;;;7.50;7.30;;;4.70;99.90;;;;;;5021215;28;20236;-80
2023/01/09 02:36:12;;;;;;;7.40;7.20;;;4.80;99.90;;;;;;5021790;28;20315;-80
2023/01/09 02:38:51;;;;;;;7.43;7.23;;;4.70;99.90;;;;;;5023625;28;20288;-80
2023/01/09 02:41:24;;;;;;;7.50;7.30;;;4.70;99.90;;;;;;5021960;28;20228;-80
2023/01/09 02:44:12;;;;;;;7.67;7.47;;;4.70;99.90;;;;;;5022628;28;20236;-80
2023/01/09 02:46:41;;;;;;;7.57;7.37;;;4.70;99.90;;;;;;5022600;28;20234;-80
2023/01/09 02:49:09;;;;;;;7.50;7.30;;;4.70;99.90;;;;;;5021255;28;20227;-80
2023/01/09 02:51:51;;;;;;;7.30;7.10;;;4.70;99.90;;;;;;5020609;28;20250;-79
2023/01/09 02:54:29;;;;;;;7.60;7.40;;;4.80;99.90;;;;;;5021735;28;20250;-80
2023/01/09 02:57:15;;;;;;;7.60;7.40;;;4.80;99.90;;;;;;5021241;28;20242;-80
2023/01/09 03:00:01;;;;;;;7.47;7.27;;;4.80;99.90;;;;;;5021036;28;20223;-80
2023/01/09 03:02:46;;;;;;;7.40;7.20;;;4.90;99.90;;;;;;5019967;28;20278;-79
2023/01/09 03:05:23;;;;;;;7.50;7.30;;;4.90;99.90;;;;;;5020827;28;20238;-80
2023/01/09 03:07:59;;;;;;;7.50;7.30;;;4.90;99.90;;;;;;5019945;28;20294;-80
2023/01/09 03:10:35;;;;;;;7.60;7.40;;;4.90;99.90;;;;;;5021086;28;20238;-81
2023/01/09 03:13:03;;;;;;;7.40;7.20;;;5.00;99.90;;;;;;5022920;28;20262;-80
2023/01/09 03:15:35;;;;;;;7.57;7.37;;;5.00;99.90;;;;;;5028748;28;20292;-79
2023/01/09 03:18:06;;;;;;;7.50;7.30;;;5.00;99.90;;;;;;5024910;28;20232;-79
2023/01/09 03:20:35;;;;;;;7.53;7.33;;;4.90;99.90;;;;;;5024234;28;20310;-79
2023/01/09 03:23:06;;;;;;;7.60;7.40;;;5.00;99.90;;;;;;5022708;28;20247;-80
2023/01/09 03:25:34;;;;;;;7.70;7.50;;;5.00;99.90;;;;;;5022631;28;20255;-78
2023/01/09 03:28:05;;;;;;;7.57;7.37;;;5.00;99.90;;;;;;5021420;28;20236;-77
2023/01/09 03:30:35;;;;;;;7.50;7.30;;;5.00;99.90;;;;;;5020891;28;20236;-77
2023/01/09 03:33:04;;;;;;;7.50;7.30;;;5.00;99.90;;;;;;5020261;28;20307;-80
2023/01/09 03:35:31;;;;;;;7.37;7.17;;;5.00;99.90;;;;;;5021581;28;20323;-80
2023/01/09 03:37:59;;;;;;;7.40;7.20;;;5.00;99.90;;;;;;5021278;28;20330;-80
2023/01/09 03:40:26;;;;;;;7.33;7.13;;;5.00;99.90;;;;;;5019902;28;20224;-77
2023/01/09 03:42:54;;;;;;;7.50;7.30;;;5.00;99.90;;;;;;5019032;28;20252;-78
2023/01/09 03:45:22;;;;;;;7.40;7.20;;;5.00;99.90;;;;;;5020292;28;20232;-78
2023/01/09 03:47:49;;;;;;;7.30;7.10;;;5.00;99.90;;;;;;5019551;28;20240;-78
2023/01/09 03:50:18;;;;;;;7.17;6.97;;;5.00;99.90;;;;;;5018535;28;20799;-80
2023/01/09 03:52:46;;;;;;;7.27;7.07;;;5.00;99.90;;;;;;5020391;28;21120;-80
2023/01/09 03:55:14;;;;;;;7.10;6.90;;;4.90;99.90;;;;;;5021599;28;20323;-82
2023/01/09 03:57:41;;;;;;;7.10;6.90;;;4.90;99.90;;;;;;5022347;28;20243;-80
2023/01/09 04:00:12;;;;;;;7.30;7.10;;;4.90;99.90;;;;;;5038419;28;20212;-78
2023/01/09 04:02:39;;;;;;;7.40;7.20;;;4.90;99.90;;;;;;5038617;28;20255;-79
2023/01/09 04:05:08;;;;;;;7.43;7.23;;;4.90;99.90;;;;;;5039486;28;20255;-79
2023/01/09 04:07:38;;;;;;;7.10;6.90;;;4.90;99.90;;;;;;5038829;28;20232;-80
2023/01/09 04:10:06;;;;;;;7.60;7.40;;;4.90;99.90;;;;;;5036750;28;20228;-78
2023/01/09 04:12:34;;;;;;;7.50;7.30;;;4.90;99.90;;;;;;5036136;28;20236;-78
2023/01/09 04:15:01;;;;;;;7.30;7.10;;;4.90;99.90;;;;;;5036252;28;20232;-78
2023/01/09 04:17:28;;;;;;;7.40;7.20;;;4.90;99.90;;;;;;5034961;28;20225;-78
2023/01/09 04:19:57;;;;;;;7.40;7.20;;;4.90;99.90;;;;;;5027884;28;20228;-80
2023/01/09 04:22:25;;;;;;;7.40;7.20;;;4.90;99.90;;;;;;5033963;28;20256;-79
2023/01/09 04:24:54;;;;;;;7.40;7.20;;;4.90;99.90;;;;;;5037284;28;20240;-79
2023/01/09 04:27:21;;;;;;;7.53;7.33;;;4.90;99.90;;;;;;5034938;28;20264;-79
2023/01/09 04:29:49;;;;;;;7.40;7.20;;;4.90;99.90;;;;;;5032385;28;20231;-80
2023/01/09 04:32:16;;;;;;;7.20;7.00;;;4.90;99.90;;;;;;5031451;28;20263;-79
2023/01/09 04:34:44;;;;;;;7.33;7.13;;;5.00;99.90;;;;;;5027239;28;20228;-80
2023/01/09 04:37:12;;;;;;;7.27;7.07;;;5.00;99.90;;;;;;5026080;28;20296;-79
2023/01/09 04:39:43;;;;;;;7.40;7.20;;;4.90;99.90;;;;;;5023360;28;20291;-81
2023/01/09 04:42:12;;;;;;;7.40;7.20;;;4.90;99.90;;;;;;5020796;28;20247;-80
2023/01/09 04:44:40;;;;;;;7.30;7.10;;;4.90;99.90;;;;;;5020267;28;20232;-80
2023/01/09 04:47:07;;;;;;;7.40;7.20;;;4.90;99.90;;;;;;5019030;28;20239;-80
2023/01/09 04:49:35;;;;;;;7.43;7.23;;;4.90;99.90;;;;;;5020307;28;20263;-78
2023/01/09 04:52:02;;;;;;;7.43;7.23;;;5.00;99.90;;;;;;5020894;28;20244;-77
2023/01/09 04:54:30;;;;;;;7.17;6.97;;;5.00;99.90;;;;;;5019558;28;20236;-80
2023/01/09 04:56:57;;;;;;;7.20;7.00;;;5.00;99.90;;;;;;5019344;28;20232;-80
2023/01/09 04:59:26;;;;;;;7.23;7.03;;;5.00;99.90;;;;;;5019084;28;20242;-78
2023/01/09 05:01:54;;;;;;;7.20;7.00;;;5.00;99.90;;;;;;5019016;28;20232;-78
2023/01/09 05:04:22;;;;;;;7.30;7.10;;;5.00;99.90;;;;;;5023005;23;20233;-82
2023/01/09 05:06:51;;;;;;;7.10;6.90;;;5.00;99.90;;;;;;5010750;28;20284;-82
2023/01/09 05:09:20;;;;;;;7.23;7.03;;;5.10;99.90;;;;;;5012412;28;20231;-82
2023/01/09 05:11:50;;;;;;;7.20;7.00;;;5.10;99.90;;;;;;5007686;28;20237;-82
2023/01/09 05:14:21;;;;;;;6.80;6.60;;;5.20;99.90;;;;;;5008272;28;20249;-81
2023/01/09 05:16:59;;;;;;;7.10;6.90;;;5.20;99.90;;;;;;5009134;28;20237;-82
2023/01/09 05:19:28;;;;;;;7.20;7.00;;;5.20;99.90;;;;;;5018483;28;20225;-82
2023/01/09 05:21:58;;;;;;;7.23;7.03;;;5.10;99.90;;;;;;5029302;28;20232;-82
2023/01/09 05:24:29;;;;;;;7.20;7.00;;;5.20;99.90;;;;;;5028248;28;20263;-82
2023/01/09 05:26:57;;;;;;;7.40;7.20;;;5.20;99.90;;;;;;5027965;28;20235;-82
2023/01/09 05:29:29;;;;;;;7.00;6.80;;;5.20;99.90;;;;;;5028659;28;20228;-83
2023/01/09 05:32:06;;;;;;;7.17;6.97;;;5.20;99.90;;;;;;5027432;28;20296;-81
2023/01/09 05:34:34;;;;;;;6.93;6.73;;;5.30;99.90;;;;;;5027667;28;20250;-81
2023/01/09 05:37:05;;;;;;;6.97;6.77;;;5.30;99.90;;;;;;5029221;28;20236;-81
2023/01/09 05:39:36;;;;;;;7.00;6.80;;;5.40;99.90;;;;;;5028278;28;20233;-82
2023/01/09 05:42:04;;;;;;;6.97;6.77;;;5.40;99.90;;;;;;5021948;28;20233;-82
2023/01/09 05:44:34;;;;;;;6.87;6.67;;;5.40;99.90;;;;;;5017459;28;20346;-82
2023/01/09 05:47:10;;;;;;;6.80;6.60;;;5.40;99.90;;;;;;5014991;28;20235;-82
2023/01/09 05:49:39;;;;;;;6.70;6.50;;;5.50;99.90;;;;;;5026831;28;20232;-82
2023/01/09 05:52:14;;;;;;;6.87;6.67;;;5.60;99.90;;;;;;5022700;28;20240;-82
2023/01/09 05:57:29;;;;;;;6.73;6.53;;;5.70;99.90;;;;;;5014494;28;20245;-81
2023/01/09 05:59:57;;;;;;;6.80;6.60;;;5.90;99.90;;;;;;5024130;28;20264;-81
2023/01/09 06:02:35;;;;;;;6.60;6.40;;;6.00;99.90;;;;;;5028722;28;20256;-82
2023/01/09 06:05:11;;;;;;;6.60;6.40;;;6.20;99.90;;;;;;5032187;28;20391;-82
2023/01/09 06:07:43;;;;;;;6.37;6.17;;;6.40;99.90;;;;;;5030436;28;20220;-82
2023/01/09 06:10:13;;;;;;;6.40;6.20;;;6.60;99.90;;;;;;5030870;28;20224;-82
2023/01/09 06:12:48;;;;;;;6.60;6.40;;;6.70;99.90;;;;;;5030276;28;20250;-82
2023/01/09 06:15:27;;;;;;;6.40;6.20;;;6.80;99.90;;;;;;5030874;28;20278;-82
2023/01/09 06:18:07;;;;;;;6.10;6.00;;;6.80;99.90;;;;;;5010789;28;20236;-81
2023/01/09 06:20:45;;;;;;;6.57;6.37;;;6.90;99.90;;;;;;5009321;28;20276;-82
2023/01/09 06:23:13;;;;;;;6.50;6.30;;;6.90;99.90;;;;;;5008417;28;20229;-81
2023/01/09 06:25:51;;;;;;;6.60;6.40;;;7.00;99.90;;;;;;5009321;28;21053;-81
2023/01/09 06:28:22;;;;;;;6.47;6.27;;;7.00;99.90;;;;;;5008719;28;20213;-81
2023/01/09 06:31:04;;;;;;;6.93;6.73;;;7.00;99.90;;;;;;5007761;28;20540;-81
2023/01/09 06:33:47;;;;;;;6.70;6.50;;;6.90;99.90;;;;;;5018667;28;20247;-80
2023/01/09 06:36:15;;;;;;;6.97;6.77;;;7.00;99.90;;;;;;5026663;28;20246;-82
2023/01/09 06:38:56;;;;;;;7.10;6.90;;;6.90;99.90;;;;;;5025622;28;20228;-82
2023/01/09 06:41:34;;;;;;;7.37;7.17;;;6.90;99.90;;;;;;5025971;28;20235;-81
2023/01/09 06:44:10;;;;;;;7.40;7.20;;;6.90;99.90;;;;;;5025884;28;20232;-84
2023/01/09 06:49:56;;;;;;;6.97;6.77;;;6.90;99.90;;;;;;4946325;28;20454;-82
2023/01/09 06:52:31;;;;;;;7.30;7.10;;;6.80;99.90;;;;;;4990389;28;20259;-83
2023/01/09 06:55:08;;;;;;;7.23;7.03;;;6.80;99.90;;;;;;5009258;28;20267;-83
2023/01/09 06:57:39;;;;;;;7.20;7.00;;;6.80;99.90;;;;;;5007625;28;20232;-82
2023/01/09 07:00:09;;;;;;;7.77;7.57;;;6.70;99.90;;;;;;5007287;28;20260;-83
2023/01/09 07:02:37;;;;;;;7.90;7.70;;;6.70;99.90;;;;;;5006767;28;20237;-83
2023/01/09 07:05:15;;;;;;;8.00;7.80;;;6.70;99.90;;;;;;5006725;28;20341;-82
2023/01/09 07:08:03;;;;;;;8.23;8.03;;;6.70;99.90;;;;;;5005923;28;20244;-80
2023/01/09 07:10:33;;;;;;;8.23;8.03;;;6.70;99.90;;;;;;5005896;28;20233;-80
2023/01/09 07:13:01;;;;;;;8.50;8.30;;;6.70;99.90;;;;;;5012117;28;20240;-81
2023/01/09 07:15:30;;;;;;;8.50;8.30;;;6.70;99.90;;;;;;5021636;28;20259;-80
2023/01/09 07:18:02;;;;;;;8.40;8.20;;;6.70;99.90;;;;;;5023154;28;20274;-80
2023/01/09 07:20:41;;;;;;;8.47;8.27;;;6.70;99.90;;;;;;5025361;28;20300;-81
2023/01/09 07:23:11;;;;;;;8.40;8.20;;;6.70;99.90;;;;;;5025554;28;20236;-81
2023/01/09 07:25:39;;;;;;;8.30;8.10;;;6.60;99.90;;;;;;5026051;28;20286;-81
2023/01/09 07:28:09;;;;;;;8.30;8.10;;;6.70;99.90;;;;;;5027338;28;20259;-81
2023/01/09 07:30:39;;;;;;;8.40;8.20;;;6.70;99.90;;;;;;5025994;28;20224;-80
2023/01/09 07:33:08;;;;;;;8.43;8.23;;;6.70;99.90;;;;;;5026076;28;20235;-81
2023/01/09 07:35:40;;;;;;;8.33;8.13;;;6.60;99.90;;;;;;5025422;28;20280;-81
2023/01/09 07:38:08;;;;;;;8.57;8.37;;;6.60;99.90;;;;;;5025657;28;20259;-81
2023/01/09 07:40:36;;;;;;;8.30;8.10;;;6.60;99.90;;;;;;5024594;28;20235;-81
2023/01/09 07:43:06;;;;;;;8.13;7.93;;;6.60;99.90;;;;;;5025786;28;20267;-81
2023/01/09 07:45:35;;;;;;;8.60;8.40;;;6.60;99.90;;;;;;5026332;28;20240;-82
2023/01/09 07:48:04;;;;;;;8.70;8.50;;;6.60;99.90;;;;;;5026561;28;20257;-81
2023/01/09 07:50:33;;;;;;;8.70;8.50;;;6.60;99.90;;;;;;5025172;28;20330;-82
2023/01/09 07:53:15;;;;;;;8.60;8.40;;;6.60;99.90;;;;;;5024087;28;20305;-81
2023/01/09 07:55:43;;;;;;;8.63;8.43;;;6.60;99.90;;;;;;5024424;28;20260;-81
2023/01/09 07:58:11;;;;;;;8.60;8.40;;;6.60;99.90;;;;;;5024330;28;20319;-81
2023/01/09 08:00:40;;;;;;;9.10;8.80;;;6.60;99.90;;;;;;5023255;28;20220;-81
2023/01/09 08:03:10;;;;;;;8.80;8.60;;;6.70;99.90;;;;;;5023041;28;20295;-82
2023/01/09 08:05:39;;;;;;;8.77;8.57;;;6.70;99.90;;;;;;5024145;28;20238;-82
2023/01/09 08:08:12;;;;;;;8.07;7.87;;;6.60;99.90;;;;;;5023666;28;20235;-82
2023/01/09 08:10:40;;;;;;;8.60;8.40;;;6.60;99.90;;;;;;5022685;28;20642;-81
2023/01/09 08:13:07;;;;;;;8.60;8.40;;;6.60;99.90;;;;;;5024340;28;20240;-80
2023/01/09 08:15:38;;;;;;;8.60;8.40;;;6.60;99.90;;;;;;5037651;28;20228;-80
2023/01/09 08:18:06;;;;;;;8.60;8.40;;;6.60;99.90;;;;;;5030445;28;20276;-82
2023/01/09 08:20:35;;;;;;;8.50;8.30;;;6.60;99.90;;;;;;5026169;28;20232;-82
2023/01/09 08:23:05;;;;;;;8.50;8.30;;;6.60;99.90;;;;;;5022486;28;20281;-82
2023/01/09 08:25:38;;;;;;;8.77;8.57;;;6.60;99.90;;;;;;5022658;28;20248;-81
2023/01/09 08:28:06;;;;;;;8.97;8.77;;;6.60;99.90;;;;;;5022709;28;20271;-81
2023/01/09 08:30:33;;;;;;;8.93;8.73;;;6.60;99.90;;;;;;5023855;28;20328;-82
2023/01/09 08:33:02;;;;;;;8.70;8.50;;;6.60;99.90;;;;;;5024056;28;20322;-81
2023/01/09 08:35:32;;;;;;;8.83;8.63;;;6.60;99.90;;;;;;5025695;28;20236;-82
2023/01/09 08:38:01;;;;;;;8.80;8.60;;;6.60;99.90;;;;;;5027283;28;20232;-80
2023/01/09 08:40:31;;;;;;;8.77;8.57;;;6.60;99.90;;;;;;5026154;28;20760;-82
2023/01/09 08:48:34;;;;;;;8.80;8.60;;;6.60;99.90;;;;;;4986407;28;20301;-83
2023/01/09 08:51:04;;;;;;;8.43;8.23;;;6.60;99.90;;;;;;4998354;28;20285;-82
2023/01/09 08:53:33;;;;;;;8.80;8.60;;;6.60;99.90;;;;;;4996641;28;20232;-82
2023/01/09 08:56:03;;;;;;;8.77;8.57;;;6.60;99.90;;;;;;4989520;28;20229;-82
2023/01/09 08:58:41;;;;;;;8.73;8.53;;;6.70;99.90;;;;;;4988347;28;20237;-81
2023/01/09 09:01:11;;;;;;;8.47;8.27;;;6.70;99.90;;;;;;4987347;28;20363;-82
2023/01/09 09:03:52;;;;;;;8.67;8.47;;;6.70;99.90;;;;;;4986870;28;20285;-82
2023/01/09 09:06:20;;;;;;;8.70;8.50;;;6.70;99.90;;;;;;4987148;28;20240;-81
2023/01/09 09:08:48;;;;;;;9.10;8.80;;;6.80;99.90;;;;;;4986549;28;20300;-82
2023/01/09 09:11:18;;;;;;;9.17;8.87;;;6.70;99.90;;;;;;4986290;28;20225;-81
2023/01/09 09:24:58;;;;;;;8.30;8.10;;;6.80;99.90;;;;;;4860233;28;20223;-82
2023/01/09 09:27:28;;;;;;;8.73;8.53;;;6.80;99.90;;;;;;5009804;28;20217;-83
2023/01/09 09:29:59;;;;;;;8.70;8.50;;;6.80;99.90;;;;;;5008965;28;20236;-84
2023/01/09 09:32:34;;;;;;;8.50;8.30;;;6.90;99.90;;;;;;5017968;28;20236;-84
2023/01/09 09:35:04;;;;;;;8.60;8.40;;;6.90;99.90;;;;;;5027899;28;20236;-82
2023/01/09 09:37:33;;;;;;;8.67;8.47;;;6.90;99.90;;;;;;5023961;28;20212;-82
2023/01/09 09:40:02;;;;;;;8.60;8.40;;;6.90;99.90;;;;;;5016472;28;20233;-83
2023/01/09 09:45:54;;;;;;;8.57;8.37;;;7.00;99.90;;;;;;5019059;28;20219;-82
2023/01/09 09:48:35;;;;;;;8.70;8.50;;;7.10;99.90;;;;;;5016046;28;20276;-82
2023/01/09 09:51:45;;;;;;;8.70;8.50;;;7.10;99.90;;;;;;5007949;28;20240;-82
2023/01/09 09:54:23;;;;;;;8.90;8.70;;;7.10;99.90;;;;;;5007446;28;20267;-82
2023/01/09 09:56:55;;;;;;;8.40;8.20;;;7.20;99.90;;;;;;5007337;28;20260;-82
2023/01/09 10:03:28;;;;;;;8.43;8.23;;;7.10;99.90;;;;;;5001297;28;20327;-82
2023/01/09 10:06:53;;;;;;;8.53;8.33;;;7.00;99.90;;;;;;4955683;28;20240;-84
2023/01/09 10:14:12;;;;;;;8.73;8.53;;;7.00;99.90;;;;;;4891186;28;20234;-82
2023/01/09 10:29:15;;;;;;;9.00;8.80;;;7.00;99.90;;;;;;4889086;29;20220;-82
2023/01/09 10:42:55;;;;;;;8.60;8.40;;;7.20;99.90;;;;;;4902510;28;20230;-82
2023/01/09 10:52:45;;;;;;;8.73;8.53;;;7.10;99.90;;;;;;4915775;29;20219;-83
2023/01/09 10:55:43;;;;;;;8.80;8.60;;;7.20;99.90;;;;;;4926653;29;20243;-83
2023/01/09 10:58:37;;;;;;;8.80;8.60;;;7.20;99.90;;;;;;5007112;28;20267;-83
2023/01/09 11:04:27;;;;;;;8.63;8.43;;;7.20;99.90;;;;;;5020415;23;20316;-80
2023/01/09 11:07:01;;;;;;;8.97;8.77;;;7.20;99.90;;;;;;4996217;28;20225;-79
2023/01/09 11:09:28;;;;;;;9.07;8.77;;;7.20;99.90;;;;;;4986090;28;20285;-78
2023/01/09 11:11:56;;;;;;;8.57;8.37;;;7.20;99.90;;;;;;4989242;28;20237;-80
2023/01/09 11:14:30;;;;;;;8.70;8.50;;;7.20;99.90;;;;;;4995067;28;20233;-80
2023/01/09 11:17:03;;;;;;;8.37;8.17;;;7.20;99.90;;;;;;4995651;28;20239;-80
2023/01/09 11:19:32;;;;;;;8.47;8.27;;;7.20;99.90;;;;;;5004613;28;20237;-82
2023/01/09 11:22:08;;;;;;;8.60;8.40;;;7.10;99.90;;;;;;5004225;28;20241;-80
2023/01/09 11:24:36;;;;;;;8.70;8.50;;;7.10;99.90;;;;;;5009915;28;20213;-81
2023/01/09 11:27:24;;;;;;;8.70;8.50;;;7.10;99.90;;;;;;5017098;28;20221;-80
2023/01/09 11:30:19;;;;;;;8.70;8.50;;;7.20;99.90;;;;;;5013377;28;20237;-80
2023/01/09 11:32:48;;;;;;;8.50;8.30;;;7.20;99.90;;;;;;5006440;28;20243;-80
2023/01/09 11:35:27;;;;;;;8.70;8.50;;;7.20;99.90;;;;;;5003156;28;20237;-81
2023/01/09 11:38:06;;;;;;;8.40;8.20;;;7.20;99.90;;;;;;5003195;28;20233;-80
2023/01/09 11:40:48;;;;;;;8.40;8.20;;;7.30;99.90;;;;;;5000471;28;20239;-80
2023/01/09 11:43:21;;;;;;;8.57;8.37;;;7.30;99.90;;;;;;5003107;28;20276;-80
2023/01/09 11:45:55;;;;;;;8.40;8.20;;;7.30;99.90;;;;;;5001509;28;20225;-81
2023/01/09 11:48:41;;;;;;;8.53;8.33;;;7.20;99.90;;;;;;5003052;28;20236;-81
2023/01/09 11:51:22;;;;;;;8.50;8.30;;;7.10;99.90;;;;;;5003835;28;20232;-81
2023/01/09 11:54:06;;;;;;;8.60;8.40;;;7.10;99.90;;;;;;5004019;28;20244;-81
2023/01/09 11:56:36;;;;;;;8.30;8.10;;;7.10;99.90;;;;;;5008204;28;20296;-81
2023/01/09 11:59:11;;;;;;;9.23;8.93;;;7.10;99.90;;;;;;5008493;28;20221;-80
2023/01/09 12:02:23;;;;;;;9.30;9.00;;;7.10;99.90;;;;;;5008806;28;20263;-80
2023/01/09 12:04:56;;;;;;;8.73;8.53;;;7.10;99.90;;;;;;5011745;28;20307;-81
2023/01/09 12:08:05;;;;;;;9.10;8.80;;;7.10;99.90;;;;;;5010723;28;20315;-81
2023/01/09 12:11:00;;;;;;;9.23;8.93;;;7.10;99.90;;;;;;4991282;28;20231;-81
2023/01/09 12:13:51;;;;;;;9.30;9.00;;;7.00;99.90;;;;;;5006392;28;20244;-82
2023/01/09 12:16:32;;;;;;;9.10;8.80;;;7.10;99.90;;;;;;5005476;28;20240;-81
2023/01/09 12:19:26;;;;;;;9.03;8.80;;;7.10;99.90;;;;;;5004047;28;20752;-81
2023/01/09 12:22:05;;;;;;;9.20;8.90;;;7.10;99.90;;;;;;5002193;28;20225;-83
2023/01/09 12:24:53;;;;;;;9.30;9.00;;;7.10;99.90;;;;;;5001006;28;20232;-83
2023/01/09 12:27:33;;;;;;;9.37;9.07;;;7.00;99.90;;;;;;5001232;28;20233;-83
2023/01/09 12:30:19;;;;;;;8.80;8.60;;;7.00;99.90;;;;;;4994256;28;20345;-83
2023/01/09 12:33:07;;;;;;;8.67;8.47;;;7.00;99.90;;;;;;4983053;28;20256;-83
2023/01/09 12:35:42;;;;;;;8.60;8.40;;;7.00;99.90;;;;;;4982512;28;20233;-82
2023/01/09 12:38:32;;;;;;;8.47;8.27;;;7.10;99.90;;;;;;4980648;28;20237;-82
2023/01/09 12:41:29;;;;;;;8.70;8.50;;;7.10;99.90;;;;;;4988167;28;20331;-82
2023/01/09 12:44:22;;;;;;;8.70;8.50;;;7.10;99.90;;;;;;4951992;28;20221;-83
2023/01/09 12:47:01;;;;;;;8.60;8.40;;;7.20;99.90;;;;;;4984753;28;20237;-83
2023/01/09 12:49:34;;;;;;;9.10;8.80;;;7.20;99.90;;;;;;4984174;28;20248;-83
2023/01/09 12:52:10;;;;;;;9.30;9.00;;;7.20;99.90;;;;;;4984269;28;20226;-82
2023/01/09 12:54:45;;;;;;;9.20;8.90;;;7.20;99.90;;;;;;4984398;28;20237;-82
2023/01/09 12:57:23;;;;;;;9.10;8.80;;;7.20;99.90;;;;;;4983201;28;20244;-86
2023/01/09 12:59:55;;;;;;;8.80;8.60;;;7.20;99.90;;;;;;4982662;28;20233;-83
2023/01/09 13:02:31;;;;;;;8.83;8.63;;;7.20;99.90;;;;;;4981128;28;20258;-84
2023/01/09 13:05:10;;;;;;;9.20;8.90;;;7.20;99.90;;;;;;4981256;28;20229;-84
2023/01/09 13:07:48;;;;;;;8.70;8.50;;;7.30;99.90;;;;;;4981654;28;20257;-84
2023/01/09 13:10:23;;;;;;;9.00;8.80;;;7.40;99.90;;;;;;4982125;28;20233;-84
2023/01/09 13:12:54;;;;;;;8.27;8.07;;;7.40;99.90;;;;;;4981036;28;20296;-84
2023/01/09 13:15:34;;;;;;;8.60;8.40;;;7.50;99.90;;;;;;4979925;28;20245;-84
2023/01/09 13:18:08;;;;;;;8.37;8.17;;;7.50;99.90;;;;;;4984139;28;20233;-85
2023/01/09 13:20:44;;;;;;;8.60;8.40;;;7.50;99.90;;;;;;4987278;28;20305;-83
2023/01/09 13:23:24;;;;;;;8.40;8.20;;;7.50;99.90;;;;;;4997280;28;20255;-83
2023/01/09 13:25:56;;;;;;;8.47;8.27;;;7.50;99.90;;;;;;5003514;28;20213;-82
2023/01/09 13:28:30;;;;;;;8.30;8.10;;;7.50;99.90;;;;;;4995084;28;20279;-83
2023/01/09 13:31:47;;;;;;;8.50;8.30;;;7.50;99.90;;;;;;4998744;28;20241;-83
2023/01/09 13:34:18;;;;;;;8.70;8.50;;;7.50;99.90;;;;;;4972558;28;20221;-82
2023/01/09 13:36:50;;;;;;;8.80;8.60;;;7.60;99.90;;;;;;5007940;28;20232;-83
2023/01/09 13:39:31;;;;;;;9.00;8.80;;;7.70;99.90;;;;;;5004585;28;20236;-84
2023/01/09 13:44:48;;;;;;;9.20;8.90;;;7.80;99.90;;;;;;5003628;28;20228;-82
2023/01/09 13:47:20;;;;;;;9.07;8.80;;;7.70;99.90;;;;;;5004324;28;20353;-82
2023/01/09 13:50:27;;;;;;;8.90;8.70;;;7.70;99.90;;;;;;5005743;28;20293;-84
2023/01/09 13:52:57;;;;;;;9.20;8.90;;;7.70;99.90;;;;;;5005205;28;20228;-82
2023/01/09 13:55:34;;;;;;;9.43;9.13;;;7.70;99.90;;;;;;4995842;28;20241;-83
2023/01/09 13:58:25;;;;;;;9.20;8.90;;;7.60;99.90;;;;;;4997713;28;20233;-83
2023/01/09 14:01:46;;;;;;;9.40;9.10;;;7.70;99.90;;;;;;5003162;28;20232;-82
2023/01/09 14:04:51;;;;;;;9.23;8.93;;;7.60;99.90;;;;;;5005817;28;20256;-83
2023/01/09 14:07:24;;;;;;;8.93;8.70;;;7.60;99.90;;;;;;5009869;28;20229;-83
2023/01/09 14:09:57;;;;;;;9.30;9.00;;;7.70;99.90;;;;;;5016407;28;20205;-83
2023/01/09 14:12:39;;;;;;;8.97;8.77;;;7.70;99.90;;;;;;5018275;28;20228;-85
2023/01/09 14:15:24;;;;;;;9.10;8.80;;;7.50;99.90;;;;;;5017678;28;20280;-86
2023/01/09 14:18:00;;;;;;;9.43;9.13;;;7.50;99.90;;;;;;5019390;28;20251;-83
2023/01/09 14:20:33;;;;;;;9.10;8.80;;;7.60;99.90;;;;;;5020686;28;20208;-83
2023/01/09 14:23:02;;;;;;;8.73;8.53;;;7.70;99.90;;;;;;5015258;28;20252;-82
2023/01/09 14:25:32;;;;;;;9.10;8.80;;;7.80;99.90;;;;;;5004280;28;20291;-83
2023/01/09 14:28:28;;;;;;;9.20;8.90;;;7.90;99.90;;;;;;5003720;28;20240;-84
2023/01/09 14:31:10;;;;;;;9.43;9.13;;;8.10;99.90;;;;;;5004711;28;20320;-83
2023/01/09 14:33:38;;;;;;;9.40;9.10;;;8.20;99.90;;;;;;4989695;28;20269;-83
2023/01/09 14:36:28;;;;;;;9.40;9.10;;;8.20;99.90;;;;;;4984383;28;20257;-84
2023/01/09 14:39:02;;;;;;;9.37;9.07;;;8.10;99.90;;;;;;4984432;28;20281;-84
2023/01/09 14:44:30;;;;;;;8.80;8.60;;;7.90;99.90;;;;;;4985199;28;20225;-85
2023/01/09 14:47:11;;;;;;;8.83;8.63;;;7.80;99.90;;;;;;4985058;28;20276;-84
2023/01/09 14:49:46;;;;;;;8.83;8.63;;;7.70;99.90;;;;;;4985061;28;20233;-84
2023/01/09 14:52:22;;;;;;;8.57;8.37;;;7.70;99.90;;;;;;4984318;28;20236;-83